sensor_id;sensor_type;location;lat;lon;timestamp;temperature;humidity
63094;DHT22;49183;51.380;0.098;2023-05-10T05:43:27;9.50;89.70
63094;DHT22;49183;51.380;0.098;2023-05-10T05:45:55;9.90;89.50
63094;DHT22;49183;51.380;0.098;2023-05-10T05:48:25;10.20;89.40
63094;DHT22;49183;51.380;0.098;2023-05-10T05:50:56;10.50;89.10
63094;DHT22;49183;51.380;0.098;2023-05-10T05:53:24;10.80;88.80
63094;DHT22;49183;51.380;0.098;2023-05-10T05:55:57;11.10;88.70
63094;DHT22;49183;51.380;0.098;2023-05-10T05:58:25;11.40;88.40
63094;DHT22;49183;51.380;0.098;2023-05-10T06:00:53;11.60;87.90
63094;DHT22;49183;51.380;0.098;2023-05-10T06:03:21;11.80;87.00
63094;DHT22;49183;51.380;0.098;2023-05-10T06:05:49;12.00;86.30
63094;DHT22;49183;51.380;0.098;2023-05-10T06:08:17;12.20;85.80
63094;DHT22;49183;51.380;0.098;2023-05-10T06:10:44;12.40;85.60
63094;DHT22;49183;51.380;0.098;2023-05-10T06:13:12;12.40;85.10
63094;DHT22;49183;51.380;0.098;2023-05-10T06:15:40;12.40;84.80
63094;DHT22;49183;51.380;0.098;2023-05-10T06:18:08;12.40;84.60
63094;DHT22;49183;51.380;0.098;2023-05-10T06:20:36;12.50;84.60
63094;DHT22;49183;51.380;0.098;2023-05-10T06:23:03;12.60;84.30
63094;DHT22;49183;51.380;0.098;2023-05-10T06:25:31;12.70;84.00
63094;DHT22;49183;51.380;0.098;2023-05-10T06:27:59;12.90;83.90
63094;DHT22;49183;51.380;0.098;2023-05-10T06:30:27;13.10;83.40
63094;DHT22;49183;51.380;0.098;2023-05-10T06:32:56;13.30;83.10
63094;DHT22;49183;51.380;0.098;2023-05-10T06:35:24;13.50;82.80
63094;DHT22;49183;51.380;0.098;2023-05-10T06:37:52;13.50;82.40
63094;DHT22;49183;51.380;0.098;2023-05-10T06:40:20;13.60;82.00
63094;DHT22;49183;51.380;0.098;2023-05-10T06:42:48;13.60;81.90
63094;DHT22;49183;51.380;0.098;2023-05-10T06:45:16;13.60;81.60
63094;DHT22;49183;51.380;0.098;2023-05-10T06:47:44;13.60;81.70
63094;DHT22;49183;51.380;0.098;2023-05-10T06:50:12;13.70;81.70
63094;DHT22;49183;51.380;0.098;2023-05-10T06:52:40;13.90;81.80
63094;DHT22;49183;51.380;0.098;2023-05-10T06:55:08;14.30;81.80
63094;DHT22;49183;51.380;0.098;2023-05-10T06:57:36;14.60;81.10
63094;DHT22;49183;51.380;0.098;2023-05-10T07:00:04;14.80;80.10
63094;DHT22;49183;51.380;0.098;2023-05-10T07:02:32;14.90;79.40
63094;DHT22;49183;51.380;0.098;2023-05-10T07:05:00;15.10;79.00
63094;DHT22;49183;51.380;0.098;2023-05-10T07:07:29;15.10;77.90
63094;DHT22;49183;51.380;0.098;2023-05-10T07:09:57;15.00;77.60
63094;DHT22;49183;51.380;0.098;2023-05-10T07:12:25;15.00;77.40
63094;DHT22;49183;51.380;0.098;2023-05-10T07:14:53;14.90;77.40
63094;DHT22;49183;51.380;0.098;2023-05-10T07:17:21;14.90;77.20
63094;DHT22;49183;51.380;0.098;2023-05-10T07:19:49;14.90;77.00
63094;DHT22;49183;51.380;0.098;2023-05-10T07:22:16;14.80;76.90
63094;DHT22;49183;51.380;0.098;2023-05-10T07:24:45;14.80;76.30
63094;DHT22;49183;51.380;0.098;2023-05-10T07:27:12;14.80;76.40
63094;DHT22;49183;51.380;0.098;2023-05-10T07:29:40;14.80;76.20
63094;DHT22;49183;51.380;0.098;2023-05-10T07:32:08;14.90;76.20
63094;DHT22;49183;51.380;0.098;2023-05-10T07:34:36;15.10;76.10
63094;DHT22;49183;51.380;0.098;2023-05-10T07:37:03;15.30;76.10
63094;DHT22;49183;51.380;0.098;2023-05-10T07:39:31;15.40;75.00
63094;DHT22;49183;51.380;0.098;2023-05-10T07:41:59;15.40;74.40
63094;DHT22;49183;51.380;0.098;2023-05-10T07:44:26;15.50;74.80
63094;DHT22;49183;51.380;0.098;2023-05-10T07:46:54;15.50;74.40
63094;DHT22;49183;51.380;0.098;2023-05-10T07:49:22;15.50;73.80
63094;DHT22;49183;51.380;0.098;2023-05-10T07:51:53;15.40;74.00
63094;DHT22;49183;51.380;0.098;2023-05-10T07:54:21;15.70;74.30
63094;DHT22;49183;51.380;0.098;2023-05-10T07:56:49;15.90;74.00
63094;DHT22;49183;51.380;0.098;2023-05-10T07:59:17;16.10;73.10
63094;DHT22;49183;51.380;0.098;2023-05-10T08:01:44;16.10;73.10
63094;DHT22;49183;51.380;0.098;2023-05-10T08:04:12;16.20;72.60
63094;DHT22;49183;51.380;0.098;2023-05-10T08:06:40;16.10;72.30
63094;DHT22;49183;51.380;0.098;2023-05-10T08:09:08;16.00;72.40
63094;DHT22;49183;51.380;0.098;2023-05-10T08:11:36;15.90;72.60
63094;DHT22;49183;51.380;0.098;2023-05-10T08:14:04;15.80;72.70
63094;DHT22;49183;51.380;0.098;2023-05-10T08:16:31;15.60;73.10
63094;DHT22;49183;51.380;0.098;2023-05-10T08:19:00;15.50;73.30
63094;DHT22;49183;51.380;0.098;2023-05-10T08:21:27;15.40;73.50
63094;DHT22;49183;51.380;0.098;2023-05-10T08:23:55;15.30;73.30
63094;DHT22;49183;51.380;0.098;2023-05-10T08:26:23;15.20;73.50
63094;DHT22;49183;51.380;0.098;2023-05-10T08:28:50;15.00;73.70
63094;DHT22;49183;51.380;0.098;2023-05-10T08:31:18;14.80;73.80
63094;DHT22;49183;51.380;0.098;2023-05-10T08:33:46;14.80;74.30
63094;DHT22;49183;51.380;0.098;2023-05-10T08:36:14;14.60;74.80
63094;DHT22;49183;51.380;0.098;2023-05-10T08:38:50;14.60;75.10
63094;DHT22;49183;51.380;0.098;2023-05-10T08:41:20;14.70;75.30
63094;DHT22;49183;51.380;0.098;2023-05-10T08:43:53;14.60;75.50
63094;DHT22;49183;51.380;0.098;2023-05-10T08:46:21;14.50;76.10
63094;DHT22;49183;51.380;0.098;2023-05-10T08:48:50;14.40;76.70
63094;DHT22;49183;51.380;0.098;2023-05-10T08:54:59;14.20;78.10
63094;DHT22;49183;51.380;0.098;2023-05-10T09:01:25;14.20;78.90
63094;DHT22;49183;51.380;0.098;2023-05-10T09:03:54;14.40;78.80
63094;DHT22;49183;51.380;0.098;2023-05-10T09:06:22;14.80;78.60
63094;DHT22;49183;51.380;0.098;2023-05-10T09:08:50;15.00;78.20
63094;DHT22;49183;51.380;0.098;2023-05-10T09:11:20;15.30;77.70
63094;DHT22;49183;51.380;0.098;2023-05-10T09:13:48;15.40;77.30
63094;DHT22;49183;51.380;0.098;2023-05-10T09:16:18;15.60;77.10
63094;DHT22;49183;51.380;0.098;2023-05-10T09:18:48;15.70;76.90
63094;DHT22;49183;51.380;0.098;2023-05-10T09:21:17;15.80;76.70
63094;DHT22;49183;51.380;0.098;2023-05-10T09:23:47;15.80;76.50
63094;DHT22;49183;51.380;0.098;2023-05-10T09:26:22;15.80;76.40
63094;DHT22;49183;51.380;0.098;2023-05-10T09:29:00;15.70;76.20
63094;DHT22;49183;51.380;0.098;2023-05-10T09:31:47;15.80;76.00
63094;DHT22;49183;51.380;0.098;2023-05-10T09:34:20;15.90;75.40
63094;DHT22;49183;51.380;0.098;2023-05-10T09:36:57;16.10;75.30
63094;DHT22;49183;51.380;0.098;2023-05-10T09:39:37;16.20;74.90
63094;DHT22;49183;51.380;0.098;2023-05-10T09:42:09;16.50;74.70
63094;DHT22;49183;51.380;0.098;2023-05-10T09:44:37;16.80;74.00
63094;DHT22;49183;51.380;0.098;2023-05-10T09:47:05;17.00;72.50
63094;DHT22;49183;51.380;0.098;2023-05-10T09:49:33;17.20;71.90
63094;DHT22;49183;51.380;0.098;2023-05-10T09:52:04;17.40;72.10
63094;DHT22;49183;51.380;0.098;2023-05-10T09:54:33;17.80;71.60
63094;DHT22;49183;51.380;0.098;2023-05-10T09:57:01;18.00;70.60
63094;DHT22;49183;51.380;0.098;2023-05-10T09:59:29;18.10;69.20
63094;DHT22;49183;51.380;0.098;2023-05-10T10:01:59;18.20;68.60
63094;DHT22;49183;51.380;0.098;2023-05-10T10:04:27;18.20;68.60
63094;DHT22;49183;51.380;0.098;2023-05-10T10:07:03;18.30;67.90
63094;DHT22;49183;51.380;0.098;2023-05-10T10:09:31;18.30;67.40
63094;DHT22;49183;51.380;0.098;2023-05-10T10:12:03;18.60;67.50
63094;DHT22;49183;51.380;0.098;2023-05-10T10:14:32;18.80;66.80
63094;DHT22;49183;51.380;0.098;2023-05-10T10:17:01;19.10;66.00
63094;DHT22;49183;51.380;0.098;2023-05-10T10:19:35;19.30;65.50
63094;DHT22;49183;51.380;0.098;2023-05-10T10:22:03;19.50;64.50
63094;DHT22;49183;51.380;0.098;2023-05-10T10:24:31;19.30;63.80
63094;DHT22;49183;51.380;0.098;2023-05-10T10:27:19;19.10;64.00
63094;DHT22;49183;51.380;0.098;2023-05-10T10:30:07;18.50;64.20
63094;DHT22;49183;51.380;0.098;2023-05-10T10:35:22;17.30;69.00
63094;DHT22;49183;51.380;0.098;2023-05-10T10:37:53;16.90;69.90
63094;DHT22;49183;51.380;0.098;2023-05-10T10:40:31;16.60;71.10
63094;DHT22;49183;51.380;0.098;2023-05-10T10:43:21;16.50;71.30
63094;DHT22;49183;51.380;0.098;2023-05-10T10:46:09;16.40;71.40
63094;DHT22;49183;51.380;0.098;2023-05-10T10:48:37;16.40;72.00
63094;DHT22;49183;51.380;0.098;2023-05-10T10:51:05;16.40;72.30
63094;DHT22;49183;51.380;0.098;2023-05-10T10:53:33;16.60;72.80
63094;DHT22;49183;51.380;0.098;2023-05-10T10:56:08;16.80;72.70
63094;DHT22;49183;51.380;0.098;2023-05-10T10:58:38;17.10;72.50
63094;DHT22;49183;51.380;0.098;2023-05-10T11:01:14;17.40;72.40
63094;DHT22;49183;51.380;0.098;2023-05-10T11:06:35;18.20;70.00
63094;DHT22;49183;51.380;0.098;2023-05-10T11:09:11;18.40;68.60
63094;DHT22;49183;51.380;0.098;2023-05-10T11:11:57;18.60;67.90
63094;DHT22;49183;51.380;0.098;2023-05-10T11:14:27;18.60;67.30
63094;DHT22;49183;51.380;0.098;2023-05-10T11:16:55;18.40;66.70
63094;DHT22;49183;51.380;0.098;2023-05-10T11:19:27;17.80;68.50
63094;DHT22;49183;51.380;0.098;2023-05-10T11:24:56;16.40;72.70
63094;DHT22;49183;51.380;0.098;2023-05-10T11:27:58;16.10;74.00
63094;DHT22;49183;51.380;0.098;2023-05-10T11:41:02;16.20;76.30
63094;DHT22;49183;51.380;0.098;2023-05-10T11:47:10;17.00;75.70
63094;DHT22;49183;51.380;0.098;2023-05-10T11:49:43;17.40;74.70
63094;DHT22;49183;51.380;0.098;2023-05-10T11:52:11;17.80;74.40
63094;DHT22;49183;51.380;0.098;2023-05-10T11:54:55;18.10;73.50
63094;DHT22;49183;51.380;0.098;2023-05-10T11:57:26;18.50;71.90
63094;DHT22;49183;51.380;0.098;2023-05-10T11:59:58;18.70;71.00
63094;DHT22;49183;51.380;0.098;2023-05-10T12:02:26;18.90;70.50
63094;DHT22;49183;51.380;0.098;2023-05-10T12:04:55;19.00;69.10
63094;DHT22;49183;51.380;0.098;2023-05-10T12:07:23;19.00;68.50
63094;DHT22;49183;51.380;0.098;2023-05-10T12:10:11;18.90;67.70
63094;DHT22;49183;51.380;0.098;2023-05-10T12:12:53;18.80;67.50
63094;DHT22;49183;51.380;0.098;2023-05-10T12:15:22;18.80;65.90
63094;DHT22;49183;51.380;0.098;2023-05-10T12:17:51;18.80;65.30
63094;DHT22;49183;51.380;0.098;2023-05-10T12:20:23;18.70;64.90
63094;DHT22;49183;51.380;0.098;2023-05-10T12:22:52;18.50;64.10
63094;DHT22;49183;51.380;0.098;2023-05-10T12:25:20;18.20;64.60
63094;DHT22;49183;51.380;0.098;2023-05-10T12:27:56;17.70;66.70
63094;DHT22;49183;51.380;0.098;2023-05-10T12:30:25;17.20;69.10
63094;DHT22;49183;51.380;0.098;2023-05-10T12:32:59;16.60;71.50
63094;DHT22;49183;51.380;0.098;2023-05-10T12:35:44;16.20;72.90
63094;DHT22;49183;51.380;0.098;2023-05-10T12:38:28;15.80;74.00
63094;DHT22;49183;51.380;0.098;2023-05-10T12:41:28;15.70;74.50
63094;DHT22;49183;51.380;0.098;2023-05-10T12:43:56;15.50;74.80
63094;DHT22;49183;51.380;0.098;2023-05-10T12:46:24;15.10;76.20
63094;DHT22;49183;51.380;0.098;2023-05-10T12:48:55;14.50;78.00
63094;DHT22;49183;51.380;0.098;2023-05-10T12:51:35;14.00;79.20
63094;DHT22;49183;51.380;0.098;2023-05-10T12:54:03;13.70;80.70
63094;DHT22;49183;51.380;0.098;2023-05-10T12:56:31;13.50;81.80
63094;DHT22;49183;51.380;0.098;2023-05-10T12:58:58;13.40;82.60
63094;DHT22;49183;51.380;0.098;2023-05-10T13:01:26;13.60;83.70
63094;DHT22;49183;51.380;0.098;2023-05-10T13:03:54;14.00;84.60
63094;DHT22;49183;51.380;0.098;2023-05-10T13:09:52;14.10;81.90
63094;DHT22;49183;51.380;0.098;2023-05-10T13:12:20;13.90;81.80
63094;DHT22;49183;51.380;0.098;2023-05-10T13:14:48;13.80;81.90
63094;DHT22;49183;51.380;0.098;2023-05-10T13:28:08;13.70;82.20
63094;DHT22;49183;51.380;0.098;2023-05-10T13:30:36;13.50;82.70
63094;DHT22;49183;51.380;0.098;2023-05-10T15:27:05;13.10;89.70
63094;DHT22;49183;51.380;0.098;2023-05-10T15:29:33;13.30;89.20
63094;DHT22;49183;51.380;0.098;2023-05-10T15:32:01;13.20;89.00
63094;DHT22;49183;51.380;0.098;2023-05-10T15:34:30;13.10;88.70
63094;DHT22;49183;51.380;0.098;2023-05-10T15:44:13;12.80;89.60
63094;DHT22;49183;51.380;0.098;2023-05-10T15:46:40;13.10;90.10
63094;DHT22;49183;51.380;0.098;2023-05-10T15:49:08;13.50;89.90
63094;DHT22;49183;51.380;0.098;2023-05-10T15:51:36;13.90;89.40
63094;DHT22;49183;51.380;0.098;2023-05-10T15:54:03;14.10;89.00
63094;DHT22;49183;51.380;0.098;2023-05-10T15:56:34;14.30;88.00
63094;DHT22;49183;51.380;0.098;2023-05-10T15:59:02;14.30;87.50
63094;DHT22;49183;51.380;0.098;2023-05-10T16:01:32;14.10;87.30
63094;DHT22;49183;51.380;0.098;2023-05-10T16:04:00;14.00;87.30
63094;DHT22;49183;51.380;0.098;2023-05-10T16:06:28;13.90;87.50
63094;DHT22;49183;51.380;0.098;2023-05-10T16:08:55;13.80;87.50
63094;DHT22;49183;51.380;0.098;2023-05-10T16:11:23;13.60;87.70
63094;DHT22;49183;51.380;0.098;2023-05-10T16:13:51;13.60;87.80
63094;DHT22;49183;51.380;0.098;2023-05-10T16:16:19;13.50;88.00
63094;DHT22;49183;51.380;0.098;2023-05-10T16:18:46;13.50;88.00
63094;DHT22;49183;51.380;0.098;2023-05-10T16:21:14;13.40;87.90
63094;DHT22;49183;51.380;0.098;2023-05-10T16:23:42;13.30;87.80
63094;DHT22;49183;51.380;0.098;2023-05-10T16:26:12;13.30;87.90
63094;DHT22;49183;51.380;0.098;2023-05-10T16:28:40;13.20;88.00
63094;DHT22;49183;51.380;0.098;2023-05-10T16:31:07;13.10;88.00
63094;DHT22;49183;51.380;0.098;2023-05-10T16:33:35;13.10;88.00
63094;DHT22;49183;51.380;0.098;2023-05-10T16:36:03;13.00;88.20
63094;DHT22;49183;51.380;0.098;2023-05-10T16:38:32;13.10;88.30
63094;DHT22;49183;51.380;0.098;2023-05-10T16:41:02;13.10;88.30
63094;DHT22;49183;51.380;0.098;2023-05-10T16:43:31;13.30;88.30
63094;DHT22;49183;51.380;0.098;2023-05-10T16:45:59;13.60;88.30
63094;DHT22;49183;51.380;0.098;2023-05-10T16:48:27;13.90;88.10
63094;DHT22;49183;51.380;0.098;2023-05-10T16:50:54;14.10;87.80
63094;DHT22;49183;51.380;0.098;2023-05-10T16:53:22;14.30;87.30
63094;DHT22;49183;51.380;0.098;2023-05-10T16:55:49;14.30;87.00
63094;DHT22;49183;51.380;0.098;2023-05-10T16:58:17;14.40;86.80
63094;DHT22;49183;51.380;0.098;2023-05-10T17:00:45;14.40;86.70
63094;DHT22;49183;51.380;0.098;2023-05-10T17:03:13;14.40;86.60
63094;DHT22;49183;51.380;0.098;2023-05-10T17:05:41;14.50;86.60
63094;DHT22;49183;51.380;0.098;2023-05-10T17:08:09;14.60;86.60
63094;DHT22;49183;51.380;0.098;2023-05-10T17:10:40;14.70;86.30
63094;DHT22;49183;51.380;0.098;2023-05-10T17:13:07;14.80;86.10
63094;DHT22;49183;51.380;0.098;2023-05-10T17:15:37;14.60;85.90
63094;DHT22;49183;51.380;0.098;2023-05-10T17:18:05;14.70;86.10
63094;DHT22;49183;51.380;0.098;2023-05-10T17:20:34;14.80;86.10
63094;DHT22;49183;51.380;0.098;2023-05-10T17:23:01;14.80;85.90
63094;DHT22;49183;51.380;0.098;2023-05-10T17:25:29;14.80;85.80
63094;DHT22;49183;51.380;0.098;2023-05-10T17:27:57;14.70;85.70
63094;DHT22;49183;51.380;0.098;2023-05-10T17:30:25;14.50;85.30
63094;DHT22;49183;51.380;0.098;2023-05-10T17:32:57;14.40;85.10
63094;DHT22;49183;51.380;0.098;2023-05-10T17:35:25;14.30;85.00
63094;DHT22;49183;51.380;0.098;2023-05-10T17:37:53;14.30;84.70
63094;DHT22;49183;51.380;0.098;2023-05-10T17:40:21;14.10;84.70
63094;DHT22;49183;51.380;0.098;2023-05-10T17:42:49;14.00;84.80
63094;DHT22;49183;51.380;0.098;2023-05-10T17:45:17;13.90;84.70
63094;DHT22;49183;51.380;0.098;2023-05-10T17:47:45;13.70;84.50
63094;DHT22;49183;51.380;0.098;2023-05-10T17:53:54;13.40;84.60
63094;DHT22;49183;51.380;0.098;2023-05-10T17:56:21;13.40;84.60
63094;DHT22;49183;51.380;0.098;2023-05-10T17:58:49;13.30;84.70
63094;DHT22;49183;51.380;0.098;2023-05-10T18:01:17;13.20;84.80
63094;DHT22;49183;51.380;0.098;2023-05-10T18:07:16;13.20;85.00
63094;DHT22;49183;51.380;0.098;2023-05-10T18:13:15;13.10;85.20
63094;DHT22;49183;51.380;0.098;2023-05-10T18:15:43;13.00;85.20
63094;DHT22;49183;51.380;0.098;2023-05-10T18:18:10;13.10;85.30
63094;DHT22;49183;51.380;0.098;2023-05-10T18:20:38;13.00;85.40
63094;DHT22;49183;51.380;0.098;2023-05-10T18:23:06;13.00;85.50
63094;DHT22;49183;51.380;0.098;2023-05-10T18:40:08;12.80;85.50
63094;DHT22;49183;51.380;0.098;2023-05-10T23:33:34;8.80;90.10
63094;DHT22;49183;51.380;0.098;2023-05-10T23:39:58;8.90;90.00
